Schwabisch Hall Army Air Field, Germany

7:41 PM CEST on September 25, 2016 (GMT +0200)
Hessental | | Change Station

Elev 1309 ft 49.12 °N, 9.78 °E | Updated 21 minutes ago

Clear
Clear
66 °F
Feels Like 66 °F
N
1
Wind Variable Wind from North

Today
High -- | Low -- °F
--% Chance of Precip.
Yesterday
High -- | Low -- °F
Precip. -- in
Pressure 30.12 in
Visibility -9999.0 miles
Clouds
Dew Point 52 °F
Humidity 60%
Rainfall 0.00 in
Snow Depth Not available.
7:12 AM 7:11 PM
Waning Crescent, 26% visible
METAR EDTY 251720Z 35001KT CAVOK 19/11 Q1020
Pressure 30.12 in
Visibility -9999.0 miles
Clouds
Dew Point 52 °F
Humidity 60%
Rainfall 0.00 in
Snow Depth Not available.
7:12 AM 7:11 PM
Waning Crescent, 26% visible
METAR EDTY 251720Z 35001KT CAVOK 19/11 Q1020

10-Day Weather Forecast

×

Almanac

Astronomy

Sep. 25, 2016 Rise Set
Actual Time
Civil Twilight
Nautical Twilight
Astronomical Twilight
Moon
Length of Visible Light
Length of Day
Tomorrow will be .
, % of the Moon is Illuminated

Today's Extremes

Country Highs Country Lows

Community

WunderPhotos

Upload Photos

1,941,674 photos uploaded!

WunderBlog® & News

Nearby

Air Quality

  Air Quality AQ Index Pollutant
Not available.

Snow Depth

Station Depth Elevation

Earthquake Activity

City Distance Mag. Time & Date
Minimum magnitude displayed is 2.5.

Coastal Water Temperatures

Place Temperature

Stations

Nearby Weather Stations

Station Location Temp. Windchill Dew Point Humidity Wind Precip. Elev Updated Type